sensor_id;sensor_type;location;lat;lon;timestamp;P1;durP1;ratioP1;P2;durP2;ratioP2
35675;SDS011;21790;42.668;23.298;2023-09-08T00:02:11;11.70;;;8.38;;
35675;SDS011;21790;42.668;23.298;2023-09-08T00:04:37;11.88;;;8.82;;
35675;SDS011;21790;42.668;23.298;2023-09-08T00:07:02;24.90;;;9.95;;
35675;SDS011;21790;42.668;23.298;2023-09-08T00:09:29;13.32;;;9.60;;
35675;SDS011;21790;42.668;23.298;2023-09-08T00:11:54;14.80;;;9.27;;
35675;SDS011;21790;42.668;23.298;2023-09-08T00:14:20;14.65;;;9.38;;
35675;SDS011;21790;42.668;23.298;2023-09-08T00:16:46;14.30;;;9.10;;
35675;SDS011;21790;42.668;23.298;2023-09-08T00:19:11;16.17;;;8.60;;
35675;SDS011;21790;42.668;23.298;2023-09-08T00:21:37;15.07;;;8.43;;
35675;SDS011;21790;42.668;23.298;2023-09-08T00:24:03;11.20;;;7.80;;
35675;SDS011;21790;42.668;23.298;2023-09-08T00:26:29;17.27;;;7.53;;
35675;SDS011;21790;42.668;23.298;2023-09-08T00:28:55;12.60;;;6.95;;
35675;SDS011;21790;42.668;23.298;2023-09-08T00:31:21;11.77;;;7.43;;
35675;SDS011;21790;42.668;23.298;2023-09-08T00:33:46;12.40;;;6.75;;
35675;SDS011;21790;42.668;23.298;2023-09-08T00:36:12;11.20;;;7.35;;
35675;SDS011;21790;42.668;23.298;2023-09-08T00:38:37;11.15;;;7.22;;
35675;SDS011;21790;42.668;23.298;2023-09-08T00:41:04;9.70;;;6.85;;
35675;SDS011;21790;42.668;23.298;2023-09-08T00:43:30;8.65;;;6.38;;
35675;SDS011;21790;42.668;23.298;2023-09-08T00:45:56;13.68;;;6.38;;
35675;SDS011;21790;42.668;23.298;2023-09-08T00:48:24;9.45;;;5.90;;
35675;SDS011;21790;42.668;23.298;2023-09-08T00:50:50;11.40;;;6.03;;
35675;SDS011;21790;42.668;23.298;2023-09-08T00:53:16;10.63;;;5.88;;
35675;SDS011;21790;42.668;23.298;2023-09-08T00:55:42;10.13;;;6.15;;
35675;SDS011;21790;42.668;23.298;2023-09-08T00:58:09;10.68;;;6.25;;
35675;SDS011;21790;42.668;23.298;2023-09-08T01:00:36;6.97;;;5.30;;
35675;SDS011;21790;42.668;23.298;2023-09-08T01:03:01;10.60;;;5.97;;
35675;SDS011;21790;42.668;23.298;2023-09-08T01:05:27;10.05;;;5.68;;
35675;SDS011;21790;42.668;23.298;2023-09-08T01:07:53;8.27;;;5.07;;
35675;SDS011;21790;42.668;23.298;2023-09-08T01:10:20;9.88;;;5.65;;
35675;SDS011;21790;42.668;23.298;2023-09-08T01:12:46;7.22;;;4.93;;
35675;SDS011;21790;42.668;23.298;2023-09-08T01:15:12;8.50;;;5.30;;
35675;SDS011;21790;42.668;23.298;2023-09-08T01:17:37;8.85;;;4.95;;
35675;SDS011;21790;42.668;23.298;2023-09-08T01:20:08;9.35;;;5.10;;
35675;SDS011;21790;42.668;23.298;2023-09-08T01:22:50;9.57;;;5.15;;
35675;SDS011;21790;42.668;23.298;2023-09-08T01:25:29;7.18;;;5.18;;
35675;SDS011;21790;42.668;23.298;2023-09-08T01:27:57;11.73;;;4.93;;
35675;SDS011;21790;42.668;23.298;2023-09-08T01:30:26;10.30;;;5.38;;
35675;SDS011;21790;42.668;23.298;2023-09-08T01:32:54;10.07;;;5.03;;
35675;SDS011;21790;42.668;23.298;2023-09-08T01:35:21;6.18;;;4.65;;
35675;SDS011;21790;42.668;23.298;2023-09-08T01:37:48;8.18;;;5.07;;
35675;SDS011;21790;42.668;23.298;2023-09-08T01:40:14;6.10;;;5.13;;
35675;SDS011;21790;42.668;23.298;2023-09-08T01:42:40;9.98;;;4.78;;
35675;SDS011;21790;42.668;23.298;2023-09-08T01:45:06;7.32;;;5.35;;
35675;SDS011;21790;42.668;23.298;2023-09-08T01:47:33;11.65;;;5.32;;
35675;SDS011;21790;42.668;23.298;2023-09-08T01:49:59;8.85;;;5.00;;
35675;SDS011;21790;42.668;23.298;2023-09-08T01:52:25;12.38;;;5.00;;
35675;SDS011;21790;42.668;23.298;2023-09-08T01:54:50;8.88;;;5.03;;
35675;SDS011;21790;42.668;23.298;2023-09-08T01:57:16;8.52;;;5.22;;
35675;SDS011;21790;42.668;23.298;2023-09-08T01:59:42;9.48;;;5.20;;
35675;SDS011;21790;42.668;23.298;2023-09-08T02:02:09;5.78;;;4.60;;
35675;SDS011;21790;42.668;23.298;2023-09-08T02:04:35;7.93;;;5.00;;
35675;SDS011;21790;42.668;23.298;2023-09-08T02:07:01;8.75;;;5.55;;
35675;SDS011;21790;42.668;23.298;2023-09-08T02:09:35;14.80;;;5.95;;
35675;SDS011;21790;42.668;23.298;2023-09-08T02:12:02;8.40;;;5.38;;
35675;SDS011;21790;42.668;23.298;2023-09-08T02:14:28;10.88;;;5.22;;
35675;SDS011;21790;42.668;23.298;2023-09-08T02:16:54;8.70;;;5.10;;
35675;SDS011;21790;42.668;23.298;2023-09-08T02:19:21;9.85;;;5.28;;
35675;SDS011;21790;42.668;23.298;2023-09-08T02:21:47;8.65;;;5.32;;
35675;SDS011;21790;42.668;23.298;2023-09-08T02:24:12;11.43;;;5.68;;
35675;SDS011;21790;42.668;23.298;2023-09-08T02:26:38;10.80;;;5.72;;
35675;SDS011;21790;42.668;23.298;2023-09-08T02:29:04;8.98;;;5.78;;
35675;SDS011;21790;42.668;23.298;2023-09-08T02:31:30;12.35;;;6.53;;
35675;SDS011;21790;42.668;23.298;2023-09-08T02:33:55;12.45;;;6.18;;
35675;SDS011;21790;42.668;23.298;2023-09-08T02:36:21;15.32;;;6.47;;
35675;SDS011;21790;42.668;23.298;2023-09-08T02:38:53;11.55;;;6.82;;
35675;SDS011;21790;42.668;23.298;2023-09-08T02:41:19;8.75;;;5.95;;
35675;SDS011;21790;42.668;23.298;2023-09-08T02:43:45;11.35;;;6.28;;
35675;SDS011;21790;42.668;23.298;2023-09-08T02:46:11;11.32;;;6.03;;
35675;SDS011;21790;42.668;23.298;2023-09-08T02:48:37;13.50;;;6.68;;
35675;SDS011;21790;42.668;23.298;2023-09-08T02:51:03;13.15;;;6.50;;
35675;SDS011;21790;42.668;23.298;2023-09-08T02:53:28;9.88;;;6.50;;
35675;SDS011;21790;42.668;23.298;2023-09-08T02:55:54;12.50;;;6.95;;
35675;SDS011;21790;42.668;23.298;2023-09-08T02:58:20;11.82;;;6.82;;
35675;SDS011;21790;42.668;23.298;2023-09-08T03:00:46;10.02;;;6.90;;
35675;SDS011;21790;42.668;23.298;2023-09-08T03:03:12;12.15;;;7.35;;
35675;SDS011;21790;42.668;23.298;2023-09-08T03:05:37;10.85;;;7.45;;
35675;SDS011;21790;42.668;23.298;2023-09-08T03:08:03;12.27;;;6.90;;
35675;SDS011;21790;42.668;23.298;2023-09-08T03:10:30;11.82;;;7.60;;
35675;SDS011;21790;42.668;23.298;2023-09-08T03:12:59;16.15;;;8.02;;
35675;SDS011;21790;42.668;23.298;2023-09-08T03:15:25;14.20;;;8.13;;
35675;SDS011;21790;42.668;23.298;2023-09-08T03:17:53;15.13;;;7.65;;
35675;SDS011;21790;42.668;23.298;2023-09-08T03:20:24;10.20;;;7.88;;
35675;SDS011;21790;42.668;23.298;2023-09-08T03:22:53;17.42;;;7.93;;
35675;SDS011;21790;42.668;23.298;2023-09-08T03:25:19;12.35;;;6.72;;
35675;SDS011;21790;42.668;23.298;2023-09-08T03:27:45;10.55;;;8.15;;
35675;SDS011;21790;42.668;23.298;2023-09-08T03:30:11;12.27;;;8.25;;
35675;SDS011;21790;42.668;23.298;2023-09-08T03:32:37;12.68;;;7.38;;
35675;SDS011;21790;42.668;23.298;2023-09-08T03:35:03;12.77;;;8.20;;
35675;SDS011;21790;42.668;23.298;2023-09-08T03:37:32;16.35;;;7.22;;
35675;SDS011;21790;42.668;23.298;2023-09-08T03:39:59;14.82;;;7.68;;
35675;SDS011;21790;42.668;23.298;2023-09-08T03:42:24;13.73;;;7.80;;
35675;SDS011;21790;42.668;23.298;2023-09-08T03:44:49;10.73;;;7.70;;
35675;SDS011;21790;42.668;23.298;2023-09-08T03:47:15;14.65;;;8.50;;
35675;SDS011;21790;42.668;23.298;2023-09-08T03:49:40;12.15;;;8.40;;
35675;SDS011;21790;42.668;23.298;2023-09-08T03:52:06;11.68;;;8.48;;
35675;SDS011;21790;42.668;23.298;2023-09-08T03:54:32;17.80;;;8.45;;
35675;SDS011;21790;42.668;23.298;2023-09-08T03:56:58;12.73;;;8.43;;
35675;SDS011;21790;42.668;23.298;2023-09-08T03:59:23;16.27;;;8.57;;
35675;SDS011;21790;42.668;23.298;2023-09-08T04:01:49;13.82;;;8.57;;
35675;SDS011;21790;42.668;23.298;2023-09-08T04:04:14;14.13;;;8.32;;
35675;SDS011;21790;42.668;23.298;2023-09-08T04:06:40;12.88;;;8.30;;
35675;SDS011;21790;42.668;23.298;2023-09-08T04:09:06;12.05;;;7.53;;
35675;SDS011;21790;42.668;23.298;2023-09-08T04:11:32;13.43;;;8.10;;
35675;SDS011;21790;42.668;23.298;2023-09-08T04:13:58;10.02;;;7.25;;
35675;SDS011;21790;42.668;23.298;2023-09-08T04:16:23;13.98;;;8.20;;
35675;SDS011;21790;42.668;23.298;2023-09-08T04:18:49;11.63;;;7.65;;
35675;SDS011;21790;42.668;23.298;2023-09-08T04:21:14;11.20;;;7.22;;
35675;SDS011;21790;42.668;23.298;2023-09-08T04:23:40;13.45;;;7.93;;
35675;SDS011;21790;42.668;23.298;2023-09-08T04:26:05;16.65;;;8.18;;
35675;SDS011;21790;42.668;23.298;2023-09-08T04:28:31;10.50;;;7.75;;
35675;SDS011;21790;42.668;23.298;2023-09-08T04:30:56;16.50;;;8.98;;
35675;SDS011;21790;42.668;23.298;2023-09-08T04:33:23;14.00;;;8.20;;
35675;SDS011;21790;42.668;23.298;2023-09-08T04:35:49;15.15;;;8.95;;
35675;SDS011;21790;42.668;23.298;2023-09-08T04:38:14;11.50;;;8.27;;
35675;SDS011;21790;42.668;23.298;2023-09-08T04:40:40;15.63;;;8.95;;
35675;SDS011;21790;42.668;23.298;2023-09-08T04:43:07;16.95;;;8.90;;
35675;SDS011;21790;42.668;23.298;2023-09-08T04:45:32;17.70;;;8.55;;
35675;SDS011;21790;42.668;23.298;2023-09-08T04:47:58;13.55;;;8.18;;
35675;SDS011;21790;42.668;23.298;2023-09-08T04:50:23;15.02;;;8.68;;
35675;SDS011;21790;42.668;23.298;2023-09-08T04:52:49;17.20;;;9.43;;
35675;SDS011;21790;42.668;23.298;2023-09-08T04:55:14;15.82;;;8.02;;
35675;SDS011;21790;42.668;23.298;2023-09-08T04:57:40;13.88;;;7.57;;
35675;SDS011;21790;42.668;23.298;2023-09-08T05:00:05;15.52;;;7.57;;
35675;SDS011;21790;42.668;23.298;2023-09-08T05:02:31;14.48;;;7.97;;
35675;SDS011;21790;42.668;23.298;2023-09-08T05:04:57;15.40;;;7.20;;
35675;SDS011;21790;42.668;23.298;2023-09-08T05:07:25;13.80;;;7.38;;
35675;SDS011;21790;42.668;23.298;2023-09-08T05:09:50;13.95;;;7.60;;
35675;SDS011;21790;42.668;23.298;2023-09-08T05:12:16;12.48;;;7.10;;
35675;SDS011;21790;42.668;23.298;2023-09-08T05:14:42;11.38;;;6.85;;
35675;SDS011;21790;42.668;23.298;2023-09-08T05:17:07;10.18;;;7.22;;
35675;SDS011;21790;42.668;23.298;2023-09-08T05:19:33;10.57;;;7.38;;
35675;SDS011;21790;42.668;23.298;2023-09-08T05:21:58;13.40;;;7.80;;
35675;SDS011;21790;42.668;23.298;2023-09-08T05:24:24;11.50;;;7.07;;
35675;SDS011;21790;42.668;23.298;2023-09-08T05:26:51;10.65;;;6.40;;
35675;SDS011;21790;42.668;23.298;2023-09-08T05:29:17;12.93;;;7.20;;
35675;SDS011;21790;42.668;23.298;2023-09-08T05:31:42;18.73;;;6.45;;
35675;SDS011;21790;42.668;23.298;2023-09-08T05:34:08;8.77;;;5.85;;
35675;SDS011;21790;42.668;23.298;2023-09-08T05:36:34;13.32;;;6.35;;
35675;SDS011;21790;42.668;23.298;2023-09-08T05:39:02;12.40;;;6.00;;
35675;SDS011;21790;42.668;23.298;2023-09-08T05:41:28;15.80;;;6.30;;
35675;SDS011;21790;42.668;23.298;2023-09-08T05:43:53;13.45;;;5.88;;
35675;SDS011;21790;42.668;23.298;2023-09-08T05:46:19;10.38;;;5.93;;
35675;SDS011;21790;42.668;23.298;2023-09-08T05:48:44;13.77;;;6.05;;
35675;SDS011;21790;42.668;23.298;2023-09-08T05:51:10;8.63;;;5.82;;
35675;SDS011;21790;42.668;23.298;2023-09-08T05:53:36;8.57;;;5.63;;
35675;SDS011;21790;42.668;23.298;2023-09-08T05:56:04;8.93;;;5.53;;
35675;SDS011;21790;42.668;23.298;2023-09-08T05:58:30;12.38;;;5.45;;
35675;SDS011;21790;42.668;23.298;2023-09-08T06:00:55;13.30;;;5.10;;
35675;SDS011;21790;42.668;23.298;2023-09-08T06:03:21;11.35;;;6.32;;
35675;SDS011;21790;42.668;23.298;2023-09-08T06:05:46;9.57;;;5.50;;
35675;SDS011;21790;42.668;23.298;2023-09-08T06:08:12;9.82;;;5.40;;
35675;SDS011;21790;42.668;23.298;2023-09-08T06:10:38;8.98;;;5.18;;
35675;SDS011;21790;42.668;23.298;2023-09-08T06:13:04;11.20;;;5.68;;
35675;SDS011;21790;42.668;23.298;2023-09-08T06:15:29;11.68;;;5.15;;
35675;SDS011;21790;42.668;23.298;2023-09-08T06:17:55;12.60;;;4.97;;
35675;SDS011;21790;42.668;23.298;2023-09-08T06:20:21;10.40;;;5.20;;
35675;SDS011;21790;42.668;23.298;2023-09-08T06:22:47;14.35;;;5.40;;
35675;SDS011;21790;42.668;23.298;2023-09-08T06:25:12;11.15;;;5.57;;
35675;SDS011;21790;42.668;23.298;2023-09-08T06:27:38;9.90;;;4.68;;
35675;SDS011;21790;42.668;23.298;2023-09-08T06:30:04;8.02;;;4.57;;
35675;SDS011;21790;42.668;23.298;2023-09-08T06:32:30;9.65;;;3.95;;
35675;SDS011;21790;42.668;23.298;2023-09-08T06:34:56;7.13;;;4.72;;
35675;SDS011;21790;42.668;23.298;2023-09-08T06:37:21;9.93;;;4.50;;
35675;SDS011;21790;42.668;23.298;2023-09-08T06:39:47;9.90;;;5.20;;
35675;SDS011;21790;42.668;23.298;2023-09-08T06:42:12;10.23;;;5.00;;
35675;SDS011;21790;42.668;23.298;2023-09-08T06:44:38;5.68;;;3.78;;
35675;SDS011;21790;42.668;23.298;2023-09-08T06:47:03;8.02;;;4.15;;
35675;SDS011;21790;42.668;23.298;2023-09-08T06:49:31;8.90;;;4.20;;
35675;SDS011;21790;42.668;23.298;2023-09-08T06:51:57;13.75;;;3.65;;
35675;SDS011;21790;42.668;23.298;2023-09-08T06:54:23;7.40;;;4.15;;
35675;SDS011;21790;42.668;23.298;2023-09-08T06:56:48;6.72;;;3.88;;
35675;SDS011;21790;42.668;23.298;2023-09-08T06:59:14;7.13;;;3.85;;
35675;SDS011;21790;42.668;23.298;2023-09-08T07:01:39;7.32;;;3.72;;
35675;SDS011;21790;42.668;23.298;2023-09-08T07:04:05;9.93;;;3.53;;
35675;SDS011;21790;42.668;23.298;2023-09-08T07:06:31;5.32;;;3.35;;
35675;SDS011;21790;42.668;23.298;2023-09-08T07:08:59;6.47;;;3.38;;
35675;SDS011;21790;42.668;23.298;2023-09-08T07:11:24;6.03;;;3.92;;
35675;SDS011;21790;42.668;23.298;2023-09-08T07:13:49;9.23;;;4.00;;
35675;SDS011;21790;42.668;23.298;2023-09-08T07:16:15;9.20;;;3.50;;
35675;SDS011;21790;42.668;23.298;2023-09-08T07:18:42;5.95;;;3.15;;
35675;SDS011;21790;42.668;23.298;2023-09-08T07:21:08;6.70;;;3.78;;
35675;SDS011;21790;42.668;23.298;2023-09-08T07:23:34;8.48;;;3.50;;
35675;SDS011;21790;42.668;23.298;2023-09-08T07:26:01;6.90;;;3.33;;
35675;SDS011;21790;42.668;23.298;2023-09-08T07:28:27;6.38;;;4.00;;
35675;SDS011;21790;42.668;23.298;2023-09-08T07:30:52;7.05;;;3.53;;
35675;SDS011;21790;42.668;23.298;2023-09-08T07:33:18;11.25;;;4.00;;
35675;SDS011;21790;42.668;23.298;2023-09-08T07:35:44;11.95;;;3.65;;
35675;SDS011;21790;42.668;23.298;2023-09-08T07:38:10;4.88;;;3.60;;
35675;SDS011;21790;42.668;23.298;2023-09-08T07:40:35;5.85;;;3.20;;
35675;SDS011;21790;42.668;23.298;2023-09-08T07:43:01;9.85;;;3.85;;
35675;SDS011;21790;42.668;23.298;2023-09-08T07:45:27;6.95;;;3.63;;
35675;SDS011;21790;42.668;23.298;2023-09-08T07:47:53;7.90;;;4.15;;
35675;SDS011;21790;42.668;23.298;2023-09-08T07:50:20;6.90;;;3.65;;
35675;SDS011;21790;42.668;23.298;2023-09-08T07:52:50;8.10;;;3.70;;
35675;SDS011;21790;42.668;23.298;2023-09-08T07:55:17;6.13;;;4.10;;
35675;SDS011;21790;42.668;23.298;2023-09-08T07:57:43;8.30;;;3.72;;
35675;SDS011;21790;42.668;23.298;2023-09-08T08:00:12;7.20;;;3.83;;
35675;SDS011;21790;42.668;23.298;2023-09-08T08:02:47;11.40;;;4.38;;
35675;SDS011;21790;42.668;23.298;2023-09-08T08:05:15;6.00;;;3.72;;
35675;SDS011;21790;42.668;23.298;2023-09-08T08:07:41;7.00;;;4.45;;
35675;SDS011;21790;42.668;23.298;2023-09-08T08:10:08;9.18;;;3.80;;
35675;SDS011;21790;42.668;23.298;2023-09-08T08:12:34;9.48;;;3.95;;
35675;SDS011;21790;42.668;23.298;2023-09-08T08:15:00;10.93;;;3.78;;
35675;SDS011;21790;42.668;23.298;2023-09-08T08:17:26;6.65;;;3.72;;
35675;SDS011;21790;42.668;23.298;2023-09-08T08:19:53;5.82;;;3.70;;
35675;SDS011;21790;42.668;23.298;2023-09-08T08:22:19;8.30;;;4.15;;
35675;SDS011;21790;42.668;23.298;2023-09-08T08:24:45;7.22;;;3.17;;
35675;SDS011;21790;42.668;23.298;2023-09-08T08:27:11;5.80;;;3.22;;
35675;SDS011;21790;42.668;23.298;2023-09-08T08:29:36;7.38;;;3.40;;
35675;SDS011;21790;42.668;23.298;2023-09-08T08:32:02;5.28;;;3.13;;
35675;SDS011;21790;42.668;23.298;2023-09-08T08:34:28;6.03;;;2.95;;
35675;SDS011;21790;42.668;23.298;2023-09-08T08:36:53;4.10;;;3.22;;
35675;SDS011;21790;42.668;23.298;2023-09-08T08:39:19;6.28;;;3.33;;
35675;SDS011;21790;42.668;23.298;2023-09-08T08:41:46;9.18;;;3.58;;
35675;SDS011;21790;42.668;23.298;2023-09-08T08:44:14;7.40;;;2.95;;
35675;SDS011;21790;42.668;23.298;2023-09-08T08:46:42;6.20;;;3.67;;
35675;SDS011;21790;42.668;23.298;2023-09-08T08:51:36;4.07;;;3.30;;
35675;SDS011;21790;42.668;23.298;2023-09-08T08:54:03;7.82;;;3.63;;
35675;SDS011;21790;42.668;23.298;2023-09-08T08:56:30;7.18;;;3.22;;
35675;SDS011;21790;42.668;23.298;2023-09-08T08:59:01;10.63;;;3.43;;
35675;SDS011;21790;42.668;23.298;2023-09-08T09:01:27;11.40;;;3.72;;
35675;SDS011;21790;42.668;23.298;2023-09-08T09:03:54;6.82;;;3.17;;
35675;SDS011;21790;42.668;23.298;2023-09-08T09:06:20;5.05;;;3.20;;
35675;SDS011;21790;42.668;23.298;2023-09-08T09:08:46;19.52;;;3.85;;
35675;SDS011;21790;42.668;23.298;2023-09-08T09:11:12;5.85;;;3.50;;
35675;SDS011;21790;42.668;23.298;2023-09-08T09:13:38;5.22;;;3.40;;
35675;SDS011;21790;42.668;23.298;2023-09-08T09:16:03;7.05;;;3.55;;
35675;SDS011;21790;42.668;23.298;2023-09-08T09:18:33;17.23;;;3.50;;
35675;SDS011;21790;42.668;23.298;2023-09-08T09:20:59;6.05;;;3.38;;
35675;SDS011;21790;42.668;23.298;2023-09-08T09:23:26;6.40;;;3.28;;
35675;SDS011;21790;42.668;23.298;2023-09-08T09:26:02;6.30;;;3.45;;
35675;SDS011;21790;42.668;23.298;2023-09-08T09:28:31;6.45;;;3.60;;
35675;SDS011;21790;42.668;23.298;2023-09-08T09:30:57;5.63;;;3.35;;
35675;SDS011;21790;42.668;23.298;2023-09-08T09:33:24;12.02;;;3.85;;
35675;SDS011;21790;42.668;23.298;2023-09-08T09:35:50;6.70;;;3.83;;
35675;SDS011;21790;42.668;23.298;2023-09-08T09:38:17;6.18;;;3.90;;
35675;SDS011;21790;42.668;23.298;2023-09-08T09:40:44;9.50;;;3.70;;
35675;SDS011;21790;42.668;23.298;2023-09-08T09:43:14;6.57;;;3.65;;
35675;SDS011;21790;42.668;23.298;2023-09-08T09:45:41;13.15;;;4.70;;
35675;SDS011;21790;42.668;23.298;2023-09-08T09:48:08;7.25;;;3.42;;
35675;SDS011;21790;42.668;23.298;2023-09-08T09:50:35;8.70;;;3.42;;
35675;SDS011;21790;42.668;23.298;2023-09-08T09:53:11;7.22;;;4.05;;
35675;SDS011;21790;42.668;23.298;2023-09-08T09:55:38;11.68;;;3.70;;
35675;SDS011;21790;42.668;23.298;2023-09-08T09:58:05;7.47;;;3.55;;
35675;SDS011;21790;42.668;23.298;2023-09-08T10:00:31;8.07;;;3.33;;
35675;SDS011;21790;42.668;23.298;2023-09-08T10:02:59;10.63;;;3.97;;
35675;SDS011;21790;42.668;23.298;2023-09-08T10:05:25;5.78;;;3.03;;
35675;SDS011;21790;42.668;23.298;2023-09-08T10:07:54;4.00;;;3.17;;
35675;SDS011;21790;42.668;23.298;2023-09-08T10:10:21;5.75;;;3.33;;
35675;SDS011;21790;42.668;23.298;2023-09-08T10:12:57;6.93;;;3.65;;
35675;SDS011;21790;42.668;23.298;2023-09-08T10:15:28;7.22;;;4.13;;
35675;SDS011;21790;42.668;23.298;2023-09-08T10:17:56;7.47;;;3.30;;
35675;SDS011;21790;42.668;23.298;2023-09-08T10:20:23;6.25;;;3.13;;
35675;SDS011;21790;42.668;23.298;2023-09-08T10:22:52;12.75;;;3.60;;
35675;SDS011;21790;42.668;23.298;2023-09-08T10:27:49;8.52;;;3.80;;
35675;SDS011;21790;42.668;23.298;2023-09-08T10:30:15;12.55;;;3.20;;
35675;SDS011;21790;42.668;23.298;2023-09-08T10:32:42;7.88;;;3.53;;
35675;SDS011;21790;42.668;23.298;2023-09-08T10:35:08;10.18;;;3.92;;
35675;SDS011;21790;42.668;23.298;2023-09-08T10:37:35;10.90;;;3.78;;
35675;SDS011;21790;42.668;23.298;2023-09-08T10:40:35;5.57;;;3.80;;
35675;SDS011;21790;42.668;23.298;2023-09-08T10:43:10;8.57;;;4.38;;
35675;SDS011;21790;42.668;23.298;2023-09-08T10:45:43;4.10;;;3.30;;
35675;SDS011;21790;42.668;23.298;2023-09-08T10:48:09;7.70;;;4.22;;
35675;SDS011;21790;42.668;23.298;2023-09-08T10:50:39;5.82;;;3.70;;
35675;SDS011;21790;42.668;23.298;2023-09-08T10:53:07;7.32;;;3.38;;
35675;SDS011;21790;42.668;23.298;2023-09-08T10:55:49;8.38;;;3.50;;
35675;SDS011;21790;42.668;23.298;2023-09-08T11:01:11;14.07;;;3.58;;
35675;SDS011;21790;42.668;23.298;2023-09-08T11:03:47;8.27;;;3.58;;
35675;SDS011;21790;42.668;23.298;2023-09-08T11:06:16;5.13;;;3.58;;
35675;SDS011;21790;42.668;23.298;2023-09-08T11:08:47;5.85;;;3.20;;
35675;SDS011;21790;42.668;23.298;2023-09-08T11:11:14;11.55;;;3.50;;
35675;SDS011;21790;42.668;23.298;2023-09-08T11:13:41;7.35;;;3.38;;
35675;SDS011;21790;42.668;23.298;2023-09-08T11:16:07;9.07;;;3.47;;
35675;SDS011;21790;42.668;23.298;2023-09-08T11:18:33;7.80;;;4.22;;
35675;SDS011;21790;42.668;23.298;2023-09-08T11:21:02;6.57;;;4.10;;
35675;SDS011;21790;42.668;23.298;2023-09-08T11:23:35;6.82;;;3.80;;
35675;SDS011;21790;42.668;23.298;2023-09-08T11:26:11;5.28;;;3.47;;
35675;SDS011;21790;42.668;23.298;2023-09-08T11:28:43;6.75;;;3.90;;
35675;SDS011;21790;42.668;23.298;2023-09-08T12:10:22;7.72;;;3.67;;
35675;SDS011;21790;42.668;23.298;2023-09-08T12:12:53;6.47;;;3.85;;
35675;SDS011;21790;42.668;23.298;2023-09-08T12:15:36;10.55;;;3.35;;
35675;SDS011;21790;42.668;23.298;2023-09-08T12:18:13;9.32;;;4.35;;
35675;SDS011;21790;42.668;23.298;2023-09-08T12:20:42;7.18;;;3.40;;
35675;SDS011;21790;42.668;23.298;2023-09-08T12:23:20;5.05;;;3.40;;
35675;SDS011;21790;42.668;23.298;2023-09-08T12:25:47;8.45;;;4.03;;
35675;SDS011;21790;42.668;23.298;2023-09-08T12:31:09;9.25;;;4.10;;
35675;SDS011;21790;42.668;23.298;2023-09-08T12:33:36;5.38;;;3.30;;
35675;SDS011;21790;42.668;23.298;2023-09-08T12:36:14;10.98;;;4.03;;
35675;SDS011;21790;42.668;23.298;2023-09-08T12:38:53;5.72;;;3.67;;
35675;SDS011;21790;42.668;23.298;2023-09-08T12:41:19;8.98;;;4.00;;
35675;SDS011;21790;42.668;23.298;2023-09-08T12:44:03;6.35;;;3.58;;
35675;SDS011;21790;42.668;23.298;2023-09-08T12:46:43;9.93;;;3.78;;
35675;SDS011;21790;42.668;23.298;2023-09-08T12:52:35;9.05;;;3.90;;
35675;SDS011;21790;42.668;23.298;2023-09-08T12:55:01;10.50;;;4.00;;
35675;SDS011;21790;42.668;23.298;2023-09-08T12:57:26;7.07;;;3.30;;
35675;SDS011;21790;42.668;23.298;2023-09-08T12:59:54;6.93;;;3.90;;
35675;SDS011;21790;42.668;23.298;2023-09-08T13:02:20;8.50;;;3.70;;
35675;SDS011;21790;42.668;23.298;2023-09-08T13:04:46;9.02;;;4.10;;
35675;SDS011;21790;42.668;23.298;2023-09-08T13:09:49;4.90;;;3.60;;
35675;SDS011;21790;42.668;23.298;2023-09-08T13:12:16;8.13;;;4.38;;
35675;SDS011;21790;42.668;23.298;2023-09-08T13:14:42;6.03;;;3.33;;
35675;SDS011;21790;42.668;23.298;2023-09-08T13:17:10;6.38;;;3.30;;
35675;SDS011;21790;42.668;23.298;2023-09-08T13:19:38;6.30;;;4.10;;
35675;SDS011;21790;42.668;23.298;2023-09-08T13:22:08;6.47;;;3.45;;
35675;SDS011;21790;42.668;23.298;2023-09-08T13:27:10;6.63;;;3.83;;
35675;SDS011;21790;42.668;23.298;2023-09-08T13:44:37;11.45;;;3.90;;
35675;SDS011;21790;42.668;23.298;2023-09-08T13:47:05;9.80;;;4.00;;
35675;SDS011;21790;42.668;23.298;2023-09-08T13:49:33;4.85;;;3.60;;
35675;SDS011;21790;42.668;23.298;2023-09-08T13:55:39;7.00;;;3.47;;
35675;SDS011;21790;42.668;23.298;2023-09-08T13:58:09;6.82;;;4.32;;
35675;SDS011;21790;42.668;23.298;2023-09-08T14:00:37;4.22;;;3.42;;
35675;SDS011;21790;42.668;23.298;2023-09-08T14:18:29;8.95;;;3.83;;
35675;SDS011;21790;42.668;23.298;2023-09-08T14:21:05;8.65;;;4.55;;
35675;SDS011;21790;42.668;23.298;2023-09-08T14:26:46;9.40;;;4.20;;
35675;SDS011;21790;42.668;23.298;2023-09-08T14:34:27;7.57;;;3.90;;
35675;SDS011;21790;42.668;23.298;2023-09-08T14:37:10;6.28;;;3.83;;
35675;SDS011;21790;42.668;23.298;2023-09-08T14:48:45;4.90;;;3.55;;
35675;SDS011;21790;42.668;23.298;2023-09-08T14:51:22;6.70;;;3.80;;
35675;SDS011;21790;42.668;23.298;2023-09-08T15:12:35;5.30;;;3.83;;
35675;SDS011;21790;42.668;23.298;2023-09-08T15:20:52;6.13;;;3.88;;
35675;SDS011;21790;42.668;23.298;2023-09-08T15:23:31;8.15;;;3.80;;
35675;SDS011;21790;42.668;23.298;2023-09-08T15:25:58;8.07;;;3.95;;
35675;SDS011;21790;42.668;23.298;2023-09-08T15:28:29;6.97;;;3.33;;
35675;SDS011;21790;42.668;23.298;2023-09-08T15:37:24;6.32;;;4.30;;
35675;SDS011;21790;42.668;23.298;2023-09-08T15:39:55;8.75;;;4.43;;
35675;SDS011;21790;42.668;23.298;2023-09-08T15:42:20;6.85;;;3.60;;
35675;SDS011;21790;42.668;23.298;2023-09-08T15:44:46;9.43;;;3.70;;
35675;SDS011;21790;42.668;23.298;2023-09-08T15:47:22;8.23;;;3.75;;
35675;SDS011;21790;42.668;23.298;2023-09-08T15:50:31;8.38;;;3.67;;
35675;SDS011;21790;42.668;23.298;2023-09-08T15:52:58;9.23;;;3.85;;
35675;SDS011;21790;42.668;23.298;2023-09-08T15:55:25;6.65;;;3.30;;
35675;SDS011;21790;42.668;23.298;2023-09-08T15:57:51;7.30;;;3.50;;
35675;SDS011;21790;42.668;23.298;2023-09-08T16:00:19;6.57;;;3.20;;
35675;SDS011;21790;42.668;23.298;2023-09-08T16:02:53;6.43;;;3.50;;
35675;SDS011;21790;42.668;23.298;2023-09-08T16:05:19;12.75;;;3.90;;
35675;SDS011;21790;42.668;23.298;2023-09-08T16:07:46;11.10;;;4.05;;
35675;SDS011;21790;42.668;23.298;2023-09-08T16:10:11;5.25;;;4.00;;
35675;SDS011;21790;42.668;23.298;2023-09-08T16:12:37;6.07;;;4.18;;
35675;SDS011;21790;42.668;23.298;2023-09-08T16:15:03;6.35;;;3.42;;
35675;SDS011;21790;42.668;23.298;2023-09-08T16:17:30;7.32;;;3.42;;
35675;SDS011;21790;42.668;23.298;2023-09-08T16:19:58;6.63;;;3.78;;
35675;SDS011;21790;42.668;23.298;2023-09-08T16:22:31;8.50;;;3.65;;
35675;SDS011;21790;42.668;23.298;2023-09-08T16:24:57;9.40;;;3.70;;
35675;SDS011;21790;42.668;23.298;2023-09-08T16:27:22;5.30;;;3.92;;
35675;SDS011;21790;42.668;23.298;2023-09-08T16:29:48;7.10;;;3.88;;
35675;SDS011;21790;42.668;23.298;2023-09-08T16:32:13;8.70;;;3.42;;
35675;SDS011;21790;42.668;23.298;2023-09-08T16:34:39;8.45;;;3.47;;
35675;SDS011;21790;42.668;23.298;2023-09-08T16:37:05;6.07;;;4.00;;
35675;SDS011;21790;42.668;23.298;2023-09-08T16:39:32;6.05;;;4.15;;
35675;SDS011;21790;42.668;23.298;2023-09-08T16:41:58;6.50;;;3.90;;
35675;SDS011;21790;42.668;23.298;2023-09-08T16:44:24;7.53;;;4.00;;
35675;SDS011;21790;42.668;23.298;2023-09-08T16:46:52;9.15;;;4.35;;
35675;SDS011;21790;42.668;23.298;2023-09-08T16:49:18;9.65;;;4.78;;
35675;SDS011;21790;42.668;23.298;2023-09-08T16:51:44;8.73;;;4.38;;